Time;durP1;ratioP1;P1;durP2;ratioP2;P2;SDS_P1;SDS_P2;PMS_P1;PMS_P2;Temp;Humidity;BMP_temperature;BMP_pressure;BME280_temperature;BME280_humidity;BME280_pressure;Samples;Min_cycle;Max_cycle;Signal;HPM_P1;HPM_P2
2023/10/29 00:00:37;;;;;;;4.30;2.70;;;;;;;8.56;89.75;98976.14;105928;1254;72606;-75
2023/10/29 00:03:06;;;;;;;4.70;3.90;;;;;;;8.61;90.07;98977.50;106060;1253;70337;-78
2023/10/29 00:05:34;;;;;;;4.90;3.80;;;;;;;8.59;90.37;98978.84;106166;1259;74466;-77
2023/10/29 00:08:02;;;;;;;4.80;3.60;;;;;;;8.55;90.93;98975.79;106761;1254;60548;-79
2023/10/29 00:10:29;;;;;;;4.70;3.70;;;;;;;8.52;91.30;98976.80;106012;1253;60479;-79
2023/10/29 00:12:57;;;;;;;5.10;3.00;;;;;;;8.58;91.36;98974.80;105880;1259;74098;-79
2023/10/29 00:15:25;;;;;;;4.00;3.50;;;;;;;8.67;91.51;98976.08;106125;1254;70536;-74
2023/10/29 00:17:52;;;;;;;5.10;3.70;;;;;;;8.69;91.57;98981.79;105879;1252;72482;-74
2023/10/29 00:20:20;;;;;;;4.60;4.10;;;;;;;8.66;92.37;98987.38;106149;1253;60456;-74
2023/10/29 00:22:48;;;;;;;8.00;4.20;;;;;;;8.66;92.75;98989.81;105952;1257;60801;-77
2023/10/29 00:25:15;;;;;;;4.90;3.60;;;;;;;8.75;92.40;98993.72;105824;1261;72605;-74
2023/10/29 00:27:43;;;;;;;6.50;5.10;;;;;;;8.85;92.61;98997.68;105948;1258;70869;-78
2023/10/29 00:30:12;;;;;;;5.50;4.70;;;;;;;8.87;92.53;99002.52;105824;1251;72368;-74
2023/10/29 00:32:40;;;;;;;5.40;4.50;;;;;;;8.84;92.55;99009.19;105802;1254;60626;-75
2023/10/29 00:35:09;;;;;;;3.90;3.10;;;;;;;8.88;92.26;99009.95;105728;1252;60502;-74
2023/10/29 00:37:36;;;;;;;5.10;4.10;;;;;;;8.97;92.06;99012.29;106020;1254;73328;-74
2023/10/29 00:40:05;;;;;;;5.00;4.40;;;;;;;8.98;91.66;99015.39;105771;1257;69016;-75
2023/10/29 00:42:33;;;;;;;5.70;4.90;;;;;;;8.96;91.60;99017.84;105819;1254;72547;-75
2023/10/29 00:45:01;;;;;;;7.40;5.70;;;;;;;8.97;91.51;99022.69;105655;1260;60399;-74
2023/10/29 00:47:28;;;;;;;6.30;4.50;;;;;;;9.06;90.80;99020.99;105679;1253;60483;-74
2023/10/29 00:49:56;;;;;;;7.20;5.00;;;;;;;9.14;90.30;99021.80;105691;1254;71360;-76
2023/10/29 00:52:23;;;;;;;5.60;4.10;;;;;;;9.14;90.01;99019.66;105714;1259;70039;-76
2023/10/29 00:54:51;;;;;;;6.20;4.20;;;;;;;9.12;89.56;99021.56;105877;1254;71397;-74
2023/10/29 00:57:18;;;;;;;6.30;4.80;;;;;;;9.10;89.36;99026.83;105580;1263;61143;-74
2023/10/29 00:59:47;;;;;;;6.90;4.20;;;;;;;9.19;89.03;99026.67;105946;1253;60692;-73
2023/10/29 01:02:15;;;;;;;5.30;4.60;;;;;;;9.28;88.81;99027.11;105888;1255;73844;-73
2023/10/29 01:04:43;;;;;;;8.20;4.40;;;;;;;9.31;89.10;99027.45;105976;1257;68990;-74
2023/10/29 01:07:10;;;;;;;6.00;3.90;;;;;;;9.33;88.67;99026.21;105898;1254;71373;-73
2023/10/29 01:09:40;;;;;;;7.20;4.10;;;;;;;9.34;88.38;99025.94;105989;1260;60584;-73
2023/10/29 01:12:17;;;;;;;4.20;3.40;;;;;;;9.42;87.79;99028.16;105926;1256;60444;-72
2023/10/29 01:14:45;;;;;;;22.80;17.60;;;;;;;9.48;87.66;99031.56;105862;1259;75541;-73
2023/10/29 01:17:14;;;;;;;5.90;5.10;;;;;;;9.47;87.44;99033.92;106045;1254;68669;-73
2023/10/29 01:19:41;;;;;;;4.90;4.10;;;;;;;9.43;87.48;99037.20;105925;1254;71482;-72
2023/10/29 01:22:09;;;;;;;5.40;4.30;;;;;;;9.40;87.42;99047.34;105753;1253;60511;-74
2023/10/29 01:24:38;;;;;;;6.00;4.60;;;;;;;9.37;87.41;99047.13;105838;1254;61113;-75
2023/10/29 01:27:07;;;;;;;5.40;4.40;;;;;;;9.42;87.30;99049.50;105810;1253;72569;-74
2023/10/29 01:29:36;;;;;;;5.60;4.20;;;;;;;9.49;87.13;99054.06;106020;1254;68964;-74
2023/10/29 01:32:04;;;;;;;4.70;3.70;;;;;;;9.49;86.98;99056.91;105773;1257;72750;-75
2023/10/29 01:34:31;;;;;;;4.30;3.40;;;;;;;9.46;86.49;99062.36;105877;1259;60396;-75
2023/10/29 01:36:59;;;;;;;4.60;3.70;;;;;;;9.38;86.21;99061.34;106008;1254;60543;-73
2023/10/29 01:39:26;;;;;;;4.10;3.20;;;;;;;9.35;86.08;99063.93;105886;1254;73911;-75
2023/10/29 01:41:55;;;;;;;15.70;11.10;;;;;;;9.44;85.45;99065.15;105851;1258;70480;-74
2023/10/29 01:44:23;;;;;;;4.60;4.00;;;;;;;9.50;85.31;99066.60;105858;1254;71512;-74
2023/10/29 01:46:51;;;;;;;7.30;4.90;;;;;;;9.51;85.16;99065.68;105829;1254;60433;-73
2023/10/29 01:49:18;;;;;;;4.40;3.80;;;;;;;9.51;85.20;99068.83;105906;1254;60370;-74
2023/10/29 01:51:46;;;;;;;6.90;4.40;;;;;;;9.49;84.22;99073.84;105891;1254;73990;-76
2023/10/29 01:54:13;;;;;;;6.70;4.70;;;;;;;9.44;83.95;99075.40;105771;1260;69039;-75
2023/10/29 01:56:41;;;;;;;3.70;3.20;;;;;;;9.41;83.66;99079.00;105698;1254;71430;-72
2023/10/29 01:59:13;;;;;;;3.90;3.30;;;;;;;9.46;82.78;99080.89;105690;1260;60886;-76
2023/10/29 02:01:41;;;;;;;4.80;2.50;;;;;;;9.47;81.65;99090.33;106131;1254;60456;-76
2023/10/29 02:04:09;;;;;;;3.40;3.00;;;;;;;9.35;81.32;99096.27;106073;1254;72946;-77
2023/10/29 02:06:40;;;;;;;4.80;3.10;;;;;;;9.23;81.24;99098.05;106174;1254;70158;-76
2023/10/29 02:09:08;;;;;;;6.30;3.10;;;;;;;9.14;81.52;99103.27;105953;1259;71355;-75
2023/10/29 02:11:39;;;;;;;4.00;2.70;;;;;;;9.09;81.40;99106.70;106021;1254;61780;-74
2023/10/29 02:14:06;;;;;;;3.40;2.90;;;;;;;9.15;81.08;99114.46;106178;1254;60422;-76
2023/10/29 02:16:36;;;;;;;5.60;3.10;;;;;;;9.22;80.93;99114.17;106350;1254;72655;-74
2023/10/29 02:19:03;;;;;;;3.90;3.00;;;;;;;9.22;80.67;99116.67;106969;1254;69948;-77
2023/10/29 02:21:31;;;;;;;3.10;2.80;;;;;;;9.20;80.71;99112.60;106648;1254;71734;-77
2023/10/29 02:24:00;;;;;;;3.80;3.10;;;;;;;9.17;80.45;99118.80;106449;1254;60439;-74
2023/10/29 02:26:28;;;;;;;3.30;2.60;;;;;;;9.12;79.79;99121.16;106960;1252;60530;-78
2023/10/29 02:28:56;;;;;;;3.10;2.80;;;;;;;9.15;79.51;99122.61;106536;1253;74917;-77
2023/10/29 02:31:23;;;;;;;2.70;2.40;;;;;;;9.18;79.49;99124.30;106484;1253;70314;-77
2023/10/29 02:33:51;;;;;;;3.40;2.60;;;;;;;9.17;79.78;99129.00;106715;1254;72041;-74
2023/10/29 02:36:18;;;;;;;5.20;3.20;;;;;;;9.16;80.06;99131.67;106752;1254;60514;-75
2023/10/29 02:38:46;;;;;;;3.30;3.00;;;;;;;9.13;79.46;99135.23;106808;1254;60123;-76
2023/10/29 02:41:13;;;;;;;3.90;2.80;;;;;;;9.11;79.39;99142.30;106678;1253;73847;-76
2023/10/29 02:43:41;;;;;;;3.70;2.80;;;;;;;9.10;79.35;99143.33;107074;1253;69804;-76
2023/10/29 02:46:10;;;;;;;3.80;2.50;;;;;;;9.17;79.30;99151.11;107322;1253;71477;-77
2023/10/29 02:48:38;;;;;;;3.90;2.70;;;;;;;9.25;78.71;99160.63;106853;1253;60334;-76
2023/10/29 02:51:12;;;;;;;4.20;2.80;;;;;;;9.21;78.07;99161.98;107097;1253;60373;-76
2023/10/29 02:53:40;;;;;;;3.30;2.60;;;;;;;9.13;78.10;99158.52;107136;1254;73797;-79
2023/10/29 02:56:08;;;;;;;3.60;3.00;;;;;;;9.06;77.71;99168.32;106921;1254;71024;-75
2023/10/29 02:58:35;;;;;;;4.40;2.90;;;;;;;8.95;77.87;99167.25;106640;1254;72552;-74
2023/10/29 03:01:07;;;;;;;3.70;2.60;;;;;;;8.85;77.96;99174.66;106828;1253;61533;-77
2023/10/29 03:03:35;;;;;;;3.00;2.40;;;;;;;8.86;78.00;99184.17;106888;1256;60357;-75
2023/10/29 03:06:07;;;;;;;4.20;2.90;;;;;;;8.80;78.37;99198.05;106445;1254;72389;-73
2023/10/29 03:08:35;;;;;;;3.80;2.60;;;;;;;8.75;78.75;99206.57;106504;1252;69929;-75
2023/10/29 03:11:03;;;;;;;3.70;3.00;;;;;;;8.75;79.11;99205.64;107338;1253;72970;-77
2023/10/29 03:13:31;;;;;;;4.60;2.70;;;;;;;8.77;79.04;99205.58;108978;1253;60248;-80
2023/10/29 03:15:59;;;;;;;4.00;3.00;;;;;;;8.77;78.74;99202.43;108071;1253;60399;-78
2023/10/29 03:18:29;;;;;;;4.10;2.60;;;;;;;8.83;78.42;99207.52;106875;1254;72372;-75
2023/10/29 03:20:57;;;;;;;3.50;2.50;;;;;;;8.81;78.26;99203.50;107109;1254;70287;-76
2023/10/29 03:23:24;;;;;;;3.90;2.90;;;;;;;8.78;78.44;99217.11;107585;1254;71061;-79
2023/10/29 03:25:53;;;;;;;3.20;2.80;;;;;;;8.71;78.60;99224.13;107585;1253;60562;-75
2023/10/29 03:28:21;;;;;;;3.50;2.90;;;;;;;8.63;78.55;99226.75;107506;1253;241712;-76
2023/10/29 03:32:25;;;;;;;3.30;2.70;;;;;;;8.60;78.75;99224.78;103727;1292;600391;-74
2023/10/29 03:34:52;;;;;;;3.70;2.80;;;;;;;8.59;78.82;99226.66;106315;1261;59313;-75
2023/10/29 03:37:20;;;;;;;3.70;3.20;;;;;;;8.52;79.22;99221.02;106571;1256;59958;-75
2023/10/29 03:39:47;;;;;;;3.90;3.00;;;;;;;8.45;79.35;99220.89;106710;1258;72086;-74
2023/10/29 03:42:14;;;;;;;3.70;3.00;;;;;;;8.42;80.05;99224.80;106415;1256;69937;-75
2023/10/29 03:44:42;;;;;;;4.00;2.60;;;;;;;8.40;79.79;99227.44;106312;1256;72935;-75
2023/10/29 03:47:09;;;;;;;3.40;2.70;;;;;;;8.47;79.69;99232.58;106153;1254;207109;-74
2023/10/29 03:49:42;;;;;;;4.10;3.00;;;;;;;8.50;79.72;99228.29;106240;1256;60210;-74
2023/10/29 03:52:09;;;;;;;2.70;2.50;;;;;;;8.43;79.74;99228.50;106315;1255;71089;-75
2023/10/29 03:54:37;;;;;;;5.00;2.80;;;;;;;8.34;80.06;99224.20;107101;1253;70790;-77
2023/10/29 03:57:04;;;;;;;3.50;2.80;;;;;;;8.24;80.42;99216.57;106996;1257;71375;-76
2023/10/29 03:59:31;;;;;;;5.70;3.30;;;;;;;8.26;80.68;99212.00;107126;1259;61264;-77
2023/10/29 04:01:59;;;;;;;4.00;3.10;;;;;;;8.31;80.75;99212.49;107580;1253;59307;-76
2023/10/29 04:04:26;;;;;;;3.40;2.90;;;;;;;8.29;80.77;99210.11;107791;1253;71788;-77
2023/10/29 04:06:54;;;;;;;4.70;3.50;;;;;;;8.27;81.10;99207.88;107340;1253;68696;-78
2023/10/29 04:09:21;;;;;;;4.00;3.60;;;;;;;8.24;81.05;99207.61;107146;1253;71249;-76
2023/10/29 04:11:49;;;;;;;3.50;2.90;;;;;;;8.23;80.88;99208.57;107031;1255;60463;-76
2023/10/29 04:14:16;;;;;;;3.90;2.70;;;;;;;8.30;80.76;99208.86;107010;1253;59719;-79
2023/10/29 04:16:44;;;;;;;4.10;3.00;;;;;;;8.34;80.70;99206.20;107351;1253;71504;-78
2023/10/29 04:19:11;;;;;;;6.20;3.70;;;;;;;8.30;80.80;99208.03;107779;1255;68995;-79
2023/10/29 04:21:38;;;;;;;5.10;3.70;;;;;;;8.27;80.82;99207.67;107484;1254;70682;-78
2023/10/29 04:24:06;;;;;;;4.20;3.80;;;;;;;8.26;81.09;99197.32;106887;1254;59693;-75
2023/10/29 04:26:34;;;;;;;3.70;2.70;;;;;;;8.26;81.09;99193.94;107241;1252;60097;-79
2023/10/29 04:29:01;;;;;;;9.30;4.70;;;;;;;8.35;80.82;99194.95;107426;1253;73254;-80
2023/10/29 04:31:29;;;;;;;5.00;3.70;;;;;;;8.41;80.94;99192.25;107191;1253;68709;-77
2023/10/29 04:33:56;;;;;;;5.40;3.70;;;;;;;8.37;81.28;99197.77;107054;1251;71424;-79
2023/10/29 04:36:24;;;;;;;5.70;4.20;;;;;;;8.33;81.33;99205.12;107945;1251;59506;-79
2023/10/29 04:38:51;;;;;;;4.50;3.70;;;;;;;8.26;81.40;99205.65;109339;1253;58721;-78
2023/10/29 04:41:19;;;;;;;8.40;4.00;;;;;;;8.22;81.65;99210.98;108524;1254;71439;-75
2023/10/29 04:43:46;;;;;;;7.00;4.60;;;;;;;8.23;81.79;99208.23;108452;1254;69094;-77
2023/10/29 04:46:14;;;;;;;4.00;3.60;;;;;;;8.33;81.43;99213.33;108450;1254;71374;-80
2023/10/29 04:48:43;;;;;;;4.50;3.80;;;;;;;8.38;81.35;99220.90;107613;1254;59653;-77
2023/10/29 04:51:11;;;;;;;4.20;3.80;;;;;;;8.37;81.35;99229.00;107918;1253;59528;-76
2023/10/29 04:53:38;;;;;;;6.80;3.90;;;;;;;8.37;81.61;99228.30;108045;1254;72159;-76
2023/10/29 04:56:06;;;;;;;5.00;3.80;;;;;;;8.40;82.26;99225.64;109239;1255;68861;-76
2023/10/29 04:58:33;;;;;;;5.40;3.40;;;;;;;8.46;82.24;99227.37;109247;1254;71214;-77
2023/10/29 05:01:00;;;;;;;4.20;3.40;;;;;;;8.52;82.04;99234.87;108808;1253;60460;-75
2023/10/29 05:03:28;;;;;;;5.30;2.90;;;;;;;8.63;80.95;99241.35;109079;1253;58921;-79
2023/10/29 05:05:56;;;;;;;5.00;3.20;;;;;;;8.68;80.44;99252.27;108890;1253;71861;-76
2023/10/29 05:08:23;;;;;;;5.90;3.40;;;;;;;8.62;80.27;99259.48;108840;1257;68528;-77
2023/10/29 05:10:51;;;;;;;4.90;3.70;;;;;;;8.52;80.08;99263.11;108826;1253;71300;-75
2023/10/29 05:13:18;;;;;;;3.90;3.20;;;;;;;8.43;80.42;99270.31;108459;1253;59547;-75
2023/10/29 05:15:46;;;;;;;6.00;3.00;;;;;;;8.40;80.64;99277.94;108606;1254;58751;-75
2023/10/29 05:18:13;;;;;;;3.90;2.90;;;;;;;8.46;80.60;99280.09;108487;1253;73001;-76
2023/10/29 05:20:40;;;;;;;3.10;2.80;;;;;;;8.53;80.68;99286.73;108460;1254;68991;-76
2023/10/29 05:23:08;;;;;;;5.90;3.70;;;;;;;8.51;80.60;99298.48;109033;1253;71813;-75
2023/10/29 05:25:38;;;;;;;4.50;3.30;;;;;;;8.48;80.47;99295.08;109295;1253;58787;-75
2023/10/29 05:28:09;;;;;;;3.70;3.30;;;;;;;8.46;80.62;99301.79;108626;1253;57803;-73
2023/10/29 05:30:36;;;;;;;4.00;3.10;;;;;;;8.44;80.44;99312.91;109073;1253;71512;-76
2023/10/29 05:33:04;;;;;;;4.00;3.60;;;;;;;8.55;80.28;99316.79;108756;1253;70205;-76
2023/10/29 05:35:33;;;;;;;3.90;3.50;;;;;;;8.58;79.98;99320.33;108836;1253;71355;-77
2023/10/29 05:38:00;;;;;;;4.50;3.80;;;;;;;8.53;79.84;99328.80;109113;1253;59116;-76
2023/10/29 05:40:29;;;;;;;3.90;3.50;;;;;;;8.48;80.00;99328.12;108833;1254;59250;-76
2023/10/29 05:42:57;;;;;;;4.20;3.20;;;;;;;8.44;80.13;99331.77;108722;1259;71610;-74
2023/10/29 05:45:24;;;;;;;3.80;3.40;;;;;;;8.53;80.08;99338.20;108948;1254;67769;-75
2023/10/29 05:47:51;;;;;;;4.30;3.60;;;;;;;8.57;79.84;99338.27;109190;1254;71212;-78
2023/10/29 05:50:19;;;;;;;5.50;3.90;;;;;;;8.56;79.86;99340.86;109448;1254;59292;-76
2023/10/29 05:52:48;;;;;;;4.20;3.70;;;;;;;8.54;80.00;99346.54;109039;1254;58855;-76
2023/10/29 05:55:18;;;;;;;4.70;3.80;;;;;;;8.53;80.07;99356.67;109053;1253;73098;-74
2023/10/29 05:57:47;;;;;;;7.40;3.60;;;;;;;8.55;80.14;99359.27;109138;1254;68712;-76
2023/10/29 06:00:15;;;;;;;5.20;3.60;;;;;;;8.66;79.78;99366.89;108971;1253;70610;-77
2023/10/29 06:02:42;;;;;;;5.60;4.10;;;;;;;8.70;79.80;99378.71;109382;1253;58891;-82
2023/10/29 06:05:10;;;;;;;4.90;3.90;;;;;;;8.65;80.06;99384.50;109407;1253;59042;-83
2023/10/29 06:07:42;;;;;;;5.80;3.80;;;;;;;8.60;80.48;99384.86;109389;1253;71517;-81
2023/10/29 06:10:12;;;;;;;4.90;3.90;;;;;;;8.57;80.76;99387.45;109225;1254;68690;-83
2023/10/29 06:12:46;;;;;;;5.00;4.10;;;;;;;8.66;80.77;99394.48;109159;1253;71484;-82
2023/10/29 06:15:13;;;;;;;;;;;;;;;8.70;80.92;99397.58;109206;1254;58785;-82
2023/10/29 06:17:44;;;;;;;4.70;4.20;;;;;;;8.64;81.62;99401.51;109355;1254;59497;-81
2023/10/29 06:20:16;;;;;;;5.50;5.00;;;;;;;8.57;81.87;99399.16;109232;1254;71580;-82
2023/10/29 06:22:47;;;;;;;6.70;5.30;;;;;;;8.53;82.38;99402.80;109252;1253;69187;-82
2023/10/29 06:25:16;;;;;;;5.80;4.40;;;;;;;8.60;82.29;99404.49;109411;1254;71093;-83
2023/10/29 06:27:43;;;;;;;5.40;4.80;;;;;;;8.68;82.51;99402.38;109444;1253;59091;-82
2023/10/29 06:30:11;;;;;;;6.10;5.20;;;;;;;8.68;82.56;99400.10;109555;1254;58722;-84
2023/10/29 06:32:39;;;;;;;6.30;4.90;;;;;;;8.66;82.87;99394.27;109409;1254;70633;-82
2023/10/29 06:35:07;;;;;;;5.40;4.80;;;;;;;8.65;82.88;99392.77;109247;1253;68702;-84
2023/10/29 06:37:35;;;;;;;7.60;4.60;;;;;;;8.74;82.60;99404.91;109306;1257;71207;-80
2023/10/29 06:40:03;;;;;;;5.60;4.40;;;;;;;8.85;82.37;99406.60;109176;1254;59141;-81
2023/10/29 06:42:30;;;;;;;7.00;5.20;;;;;;;8.89;82.27;99412.89;109114;1253;61701;-82
2023/10/29 06:44:57;;;;;;;5.50;4.50;;;;;;;8.88;82.58;99414.52;109348;1253;72016;-79
2023/10/29 06:47:25;;;;;;;7.40;6.10;;;;;;;8.92;82.54;99422.13;109327;1254;69063;-80
2023/10/29 06:49:57;;;;;;;7.30;5.10;;;;;;;8.96;82.30;99427.06;109357;1253;71053;-79
2023/10/29 06:52:24;;;;;;;5.60;4.90;;;;;;;9.08;82.02;99432.33;109380;1254;61083;-82
2023/10/29 06:54:51;;;;;;;7.20;4.90;;;;;;;9.22;81.83;99434.38;109381;1253;59497;-80
2023/10/29 06:57:20;;;;;;;6.30;4.90;;;;;;;9.29;81.67;99435.80;109246;1253;71496;-83
2023/10/29 06:59:47;;;;;;;6.00;4.90;;;;;;;9.29;81.27;99437.36;109404;1254;69047;-83
2023/10/29 07:02:15;;;;;;;8.10;5.70;;;;;;;9.29;80.82;99445.48;109356;1254;71064;-82
2023/10/29 07:04:43;;;;;;;5.90;5.00;;;;;;;9.27;80.84;99444.45;109342;1253;58843;-84
2023/10/29 07:07:11;;;;;;;8.10;5.30;;;;;;;9.28;80.27;99443.02;109377;1254;58726;-82
2023/10/29 07:09:39;;;;;;;5.60;5.10;;;;;;;9.37;79.90;99451.23;109244;1253;71773;-78
2023/10/29 07:12:07;;;;;;;5.70;4.90;;;;;;;9.37;79.46;99450.11;109317;1254;69166;-82
2023/10/29 07:14:35;;;;;;;6.10;4.70;;;;;;;9.32;79.70;99455.05;109219;1254;71097;-76
2023/10/29 07:17:05;;;;;;;5.10;4.60;;;;;;;9.27;79.57;99455.91;109504;1254;59007;-83
2023/10/29 07:19:32;;;;;;;6.10;4.80;;;;;;;9.23;79.41;99461.45;109490;1253;58948;-84
2023/10/29 07:21:59;;;;;;;6.40;4.90;;;;;;;9.26;79.32;99465.56;109350;1254;71793;-81
2023/10/29 07:24:27;;;;;;;5.40;4.40;;;;;;;9.35;79.13;99467.61;109467;1254;68968;-80
2023/10/29 07:26:54;;;;;;;5.60;5.00;;;;;;;9.36;79.31;99472.02;109493;1253;71201;-80
2023/10/29 07:29:22;;;;;;;5.40;4.90;;;;;;;9.35;79.29;99469.75;109455;1254;58773;-81
2023/10/29 07:31:49;;;;;;;6.00;5.10;;;;;;;9.33;79.09;99467.60;109480;1253;58813;-82
2023/10/29 07:34:16;;;;;;;6.30;5.20;;;;;;;9.30;78.99;99464.60;109358;1253;71742;-80
2023/10/29 07:36:44;;;;;;;5.70;5.00;;;;;;;9.29;79.09;99475.10;109301;1254;68708;-82
2023/10/29 07:39:12;;;;;;;6.50;4.60;;;;;;;9.40;78.94;99474.99;109052;1259;71078;-80
2023/10/29 07:41:39;;;;;;;7.90;5.40;;;;;;;9.46;78.87;99474.52;106130;1260;60414;-80
2023/10/29 07:44:06;;;;;;;5.40;4.90;;;;;;;9.46;78.51;99476.48;105887;1254;60432;-82
2023/10/29 07:46:34;;;;;;;6.30;5.30;;;;;;;9.46;78.52;99476.84;106228;1260;73784;-79
2023/10/29 07:49:02;;;;;;;5.70;5.10;;;;;;;9.45;78.56;99478.30;106043;1257;69673;-81
2023/10/29 07:51:29;;;;;;;6.40;5.60;;;;;;;9.45;78.37;99479.06;106145;1255;73597;-79
2023/10/29 07:53:57;;;;;;;7.70;5.30;;;;;;;9.54;78.20;99476.84;105852;1262;60465;-79
2023/10/29 07:56:27;;;;;;;6.60;5.50;;;;;;;9.64;78.12;99474.66;106640;1254;60434;-80
2023/10/29 07:58:55;;;;;;;5.70;4.90;;;;;;;9.69;77.93;99468.69;106312;1254;72426;-79
2023/10/29 08:01:24;;;;;;;8.10;5.80;;;;;;;9.68;77.87;99469.64;106079;1259;69016;-80
2023/10/29 08:03:51;;;;;;;7.60;5.80;;;;;;;9.65;77.71;99464.45;106098;1267;72627;-82
2023/10/29 08:06:19;;;;;;;8.10;6.00;;;;;;;9.64;77.55;99465.11;106346;1258;60469;-81
2023/10/29 08:08:46;;;;;;;8.30;6.30;;;;;;;9.68;77.81;99471.61;106030;1254;60761;-79
2023/10/29 08:11:18;;;;;;;5.00;4.50;;;;;;;9.76;78.11;99473.88;106017;1252;72587;-81
2023/10/29 08:13:46;;;;;;;6.70;5.30;;;;;;;9.93;77.47;99477.51;105963;1255;70096;-78
2023/10/29 08:16:14;;;;;;;9.70;5.10;;;;;;;10.08;77.81;99480.75;105870;1254;71408;-79
2023/10/29 08:18:41;;;;;;;6.50;5.80;;;;;;;10.20;77.95;99486.76;106238;1257;60439;-84
2023/10/29 08:21:09;;;;;;;7.40;5.60;;;;;;;10.30;77.36;99490.17;105939;1253;60917;-83
2023/10/29 08:23:36;;;;;;;6.40;5.60;;;;;;;10.37;76.99;99494.25;105864;1254;75046;-83
2023/10/29 08:26:04;;;;;;;6.10;5.40;;;;;;;10.43;77.18;99488.41;106059;1260;69049;-82
2023/10/29 08:28:31;;;;;;;7.50;5.80;;;;;;;10.52;77.26;99490.63;106014;1259;72548;-84
2023/10/29 08:30:59;;;;;;;6.90;5.90;;;;;;;10.59;76.76;99492.04;106139;1254;60722;-81
2023/10/29 08:33:26;;;;;;;5.50;5.00;;;;;;;10.76;76.42;99495.47;106053;1255;60450;-79
2023/10/29 08:35:54;;;;;;;6.40;5.40;;;;;;;10.87;75.32;99496.60;105901;1259;74130;-82
2023/10/29 08:38:23;;;;;;;6.60;5.90;;;;;;;10.86;74.64;99499.98;106058;1258;68834;-84
2023/10/29 08:40:52;;;;;;;7.30;5.50;;;;;;;10.82;74.16;99502.54;106599;1254;72640;-82
2023/10/29 08:43:19;;;;;;;7.80;6.50;;;;;;;10.83;73.99;99499.98;106230;1259;60518;-80
2023/10/29 08:45:48;;;;;;;8.00;6.10;;;;;;;10.88;73.91;99500.98;105853;1259;60434;-83
2023/10/29 08:48:17;;;;;;;7.40;5.70;;;;;;;10.99;73.76;99509.52;106137;1260;74084;-83
2023/10/29 08:50:45;;;;;;;6.90;5.80;;;;;;;11.13;73.60;99512.54;106064;1254;68862;-84
2023/10/29 08:53:12;;;;;;;7.50;5.50;;;;;;;11.32;72.97;99509.27;106207;1255;72391;-84
2023/10/29 08:55:40;;;;;;;6.70;6.00;;;;;;;11.60;72.88;99518.58;106096;1258;60360;-83
2023/10/29 08:58:09;;;;;;;7.80;6.40;;;;;;;11.75;72.20;99523.06;106018;1257;60638;-80
2023/10/29 09:00:38;;;;;;;9.40;6.30;;;;;;;11.84;72.71;99520.79;106021;1257;72600;-78
2023/10/29 09:03:14;;;;;;;7.40;6.40;;;;;;;12.00;72.71;99521.75;105917;1257;69911;-79
2023/10/29 09:05:42;;;;;;;8.20;6.30;;;;;;;12.16;73.02;99531.36;105901;1260;71123;-77
2023/10/29 09:08:10;;;;;;;7.50;6.30;;;;;;;12.29;72.10;99534.28;105808;1259;60542;-80
2023/10/29 09:10:42;;;;;;;10.00;7.30;;;;;;;12.30;70.81;99544.25;105871;1259;60530;-78
2023/10/29 09:13:10;;;;;;;9.30;6.80;;;;;;;12.14;70.53;99544.33;105883;1260;73251;-79
2023/10/29 09:15:38;;;;;;;8.10;7.20;;;;;;;11.99;71.35;99539.22;106008;1257;70349;-79
2023/10/29 09:18:08;;;;;;;8.00;6.90;;;;;;;11.91;71.99;99541.59;106909;1256;73729;-80
2023/10/29 09:20:38;;;;;;;9.80;6.80;;;;;;;11.93;72.51;99542.41;106358;1260;61713;-81
2023/10/29 09:23:06;;;;;;;7.00;6.10;;;;;;;12.06;72.64;99543.80;106077;1267;60345;-78
2023/10/29 09:25:33;;;;;;;7.60;6.40;;;;;;;12.05;72.76;99542.79;105943;1261;73874;-78
2023/10/29 09:28:04;;;;;;;8.30;7.10;;;;;;;11.98;72.58;99549.10;106336;1258;67867;-80
2023/10/29 09:30:32;;;;;;;8.40;6.80;;;;;;;11.83;72.87;99548.11;105966;1254;73506;-80
2023/10/29 09:33:00;;;;;;;8.10;7.20;;;;;;;11.70;73.73;99548.33;105967;1260;60405;-81
2023/10/29 09:35:27;;;;;;;7.90;7.10;;;;;;;11.60;74.22;99549.41;105934;1254;60459;-80
2023/10/29 09:37:55;;;;;;;7.80;6.80;;;;;;;11.55;74.87;99547.33;105890;1258;74328;-79
2023/10/29 09:40:22;;;;;;;7.80;6.60;;;;;;;11.58;75.48;99548.89;105927;1258;70178;-81
2023/10/29 09:42:53;;;;;;;8.70;6.60;;;;;;;11.55;75.72;99552.46;106234;1259;72671;-83
2023/10/29 09:45:23;;;;;;;8.70;7.50;;;;;;;11.51;76.23;99557.36;106941;1254;60473;-82
2023/10/29 09:47:59;;;;;;;9.00;7.70;;;;;;;11.48;76.56;99551.88;108164;1254;60543;-83
2023/10/29 09:50:27;;;;;;;8.40;7.30;;;;;;;11.53;77.44;99549.58;106110;1257;72916;-82
2023/10/29 09:52:55;;;;;;;7.70;6.50;;;;;;;11.75;77.06;99549.14;105753;1254;69949;-81
2023/10/29 09:55:23;;;;;;;8.00;6.90;;;;;;;11.96;76.63;99548.77;105792;1255;73313;-80
2023/10/29 09:57:51;;;;;;;7.60;6.50;;;;;;;12.09;76.23;99550.63;106056;1254;60490;-82
2023/10/29 10:00:19;;;;;;;8.80;6.60;;;;;;;12.17;75.97;99552.15;106020;1256;60478;-79
2023/10/29 10:02:53;;;;;;;9.60;7.10;;;;;;;12.24;76.28;99551.71;106035;1255;73869;-81
2023/10/29 10:05:22;;;;;;;6.80;5.30;;;;;;;12.36;76.19;99553.08;106078;1259;68975;-81
2023/10/29 10:07:51;;;;;;;6.50;5.90;;;;;;;12.55;75.88;99551.71;106176;1259;71125;-82
2023/10/29 10:10:20;;;;;;;6.70;5.50;;;;;;;12.65;75.66;99555.50;106427;1254;60370;-80
2023/10/29 10:12:49;;;;;;;7.00;5.50;;;;;;;12.68;75.31;99554.27;106553;1253;60360;-80
2023/10/29 10:15:18;;;;;;;8.30;6.20;;;;;;;12.67;75.49;99552.21;106060;1257;73878;-81
2023/10/29 10:17:57;;;;;;;7.40;5.90;;;;;;;12.68;75.73;99554.45;106168;1254;70604;-79
2023/10/29 10:20:24;;;;;;;6.80;5.40;;;;;;;12.70;75.36;99550.10;106189;1258;72471;-81
2023/10/29 10:22:59;;;;;;;6.70;5.60;;;;;;;12.77;75.37;99546.57;106965;1254;60539;-80
2023/10/29 10:25:27;;;;;;;6.90;5.40;;;;;;;12.79;75.43;99547.92;106645;1259;60416;-81
2023/10/29 10:27:56;;;;;;;9.70;5.90;;;;;;;12.82;75.72;99549.38;106375;1258;73810;-79
2023/10/29 10:30:30;;;;;;;6.50;5.90;;;;;;;12.89;75.61;99550.29;106381;1257;70553;-81
2023/10/29 10:33:11;;;;;;;5.80;5.30;;;;;;;13.00;75.64;99548.39;106819;1255;71550;-81
2023/10/29 10:35:39;;;;;;;7.40;5.00;;;;;;;13.29;75.26;99542.90;106115;1254;60776;-81
2023/10/29 10:38:07;;;;;;;7.40;5.00;;;;;;;13.70;74.91;99540.30;106092;1254;60453;-80
2023/10/29 10:40:34;;;;;;;5.80;4.70;;;;;;;14.05;72.52;99543.02;106282;1254;73900;-80
2023/10/29 10:43:02;;;;;;;5.70;5.10;;;;;;;14.16;71.03;99546.70;106047;1260;71339;-82
2023/10/29 10:45:31;;;;;;;8.30;5.10;;;;;;;14.06;71.06;99538.61;105987;1254;72495;-82
2023/10/29 10:48:00;;;;;;;5.70;5.10;;;;;;;13.87;71.40;99536.11;106113;1254;60533;-81
2023/10/29 10:50:28;;;;;;;8.80;5.60;;;;;;;13.68;71.94;99537.65;106226;1258;60536;-84
2023/10/29 10:52:56;;;;;;;6.00;5.30;;;;;;;13.48;72.78;99539.62;106214;1258;73140;-85
2023/10/29 10:55:24;;;;;;;5.80;4.40;;;;;;;13.34;73.57;99543.97;107658;1260;71346;-79
2023/10/29 10:58:12;;;;;;;5.60;4.80;;;;;;;13.37;73.78;99544.95;106734;1254;71302;-81
2023/10/29 11:00:39;;;;;;;5.80;5.20;;;;;;;13.35;74.13;99554.94;106035;1260;60405;-81
2023/10/29 11:03:08;;;;;;;5.90;5.30;;;;;;;13.24;74.39;99560.54;106121;1254;60533;-79
2023/10/29 11:05:56;;;;;;;5.60;4.90;;;;;;;13.08;74.68;99565.88;106168;1258;72714;-80
2023/10/29 11:08:23;;;;;;;6.60;5.10;;;;;;;12.97;75.53;99572.89;106508;1254;70461;-78
2023/10/29 11:10:53;;;;;;;5.60;4.90;;;;;;;12.90;75.79;99575.73;106459;1258;70711;-82
2023/10/29 11:13:21;;;;;;;6.80;5.00;;;;;;;12.93;75.97;99582.83;106762;1254;61709;-79
2023/10/29 11:15:49;;;;;;;7.50;5.50;;;;;;;12.92;75.93;99577.55;107201;1254;60450;-80
2023/10/29 11:18:29;;;;;;;6.70;4.80;;;;;;;12.86;76.37;99581.70;106503;1255;72323;-80
2023/10/29 11:20:59;;;;;;;6.00;5.00;;;;;;;12.82;76.90;99582.93;106677;1259;69864;-79
2023/10/29 11:23:28;;;;;;;7.30;5.60;;;;;;;12.81;77.11;99580.01;106372;1260;72604;-81
2023/10/29 11:26:21;;;;;;;7.60;4.60;;;;;;;12.87;77.03;99579.34;106370;1255;61694;-78
2023/10/29 11:28:53;;;;;;;6.20;5.60;;;;;;;12.99;76.84;99579.77;108277;1253;60517;-80
2023/10/29 11:31:21;;;;;;;6.60;4.90;;;;;;;13.01;76.67;99575.48;108497;1254;72421;-79
2023/10/29 11:33:55;;;;;;;6.20;4.50;;;;;;;13.00;76.86;99573.95;107037;1258;69011;-79
2023/10/29 11:36:30;;;;;;;;;;;;;;;13.05;77.00;99567.73;106801;1258;72765;-80
2023/10/29 11:39:28;;;;;;;5.00;4.00;;;;;;;13.50;76.99;99571.20;106223;1253;63688;-80